Time;durP1;ratioP1;P1;durP2;ratioP2;P2;SDS_P1;SDS_P2;PMS_P1;PMS_P2;Temp;Humidity;BMP_temperature;BMP_pressure;BME280_temperature;BME280_humidity;BME280_pressure;Samples;Min_cycle;Max_cycle;Signal;HPM_P1;HPM_P2
2021/11/02 00:01:06;;;;;;;1.00;0.40;;;10.40;99.90;;;;;;4444575;32;20130;-68
2021/11/02 00:03:33;;;;;;;0.47;0.47;;;10.40;99.90;;;;;;4445212;32;20115;-68
2021/11/02 00:05:58;;;;;;;0.60;0.60;;;10.30;99.90;;;;;;4444611;32;20061;-68
2021/11/02 00:08:24;;;;;;;0.98;0.95;;;10.30;99.90;;;;;;4445865;32;20060;-68
2021/11/02 00:10:49;;;;;;;0.68;0.68;;;10.20;99.90;;;;;;4444743;32;20073;-68
2021/11/02 00:13:17;;;;;;;0.40;0.40;;;10.30;99.90;;;;;;4444407;32;20081;-66
2021/11/02 00:15:44;;;;;;;14.27;0.65;;;10.20;99.90;;;;;;4444615;32;20077;-67
2021/11/02 00:18:10;;;;;;;0.30;0.30;;;10.10;99.90;;;;;;4444519;32;20122;-67
2021/11/02 00:20:38;;;;;;;0.40;0.40;;;10.10;99.90;;;;;;4444088;32;20072;-67
2021/11/02 00:23:06;;;;;;;0.30;0.30;;;10.10;99.90;;;;;;4444370;32;20089;-67
2021/11/02 00:25:32;;;;;;;0.75;0.75;;;10.10;99.90;;;;;;4445087;32;20073;-68
2021/11/02 00:28:00;;;;;;;0.60;0.60;;;10.10;99.90;;;;;;4445043;32;20061;-67
2021/11/02 00:30:26;;;;;;;0.30;0.30;;;10.10;99.90;;;;;;4444284;32;20065;-68
2021/11/02 00:32:55;;;;;;;0.65;0.65;;;10.10;99.90;;;;;;4443904;32;20781;-67
2021/11/02 00:35:21;;;;;;;0.50;0.50;;;10.00;99.90;;;;;;4444115;32;20085;-67
2021/11/02 00:37:47;;;;;;;2.12;0.77;;;10.00;99.90;;;;;;4445412;32;20078;-67
2021/11/02 00:40:14;;;;;;;0.55;0.55;;;10.00;99.90;;;;;;4443678;32;20514;-67
2021/11/02 00:42:42;;;;;;;0.50;0.50;;;10.00;99.90;;;;;;4443360;32;20057;-68
2021/11/02 00:45:12;;;;;;;0.50;0.50;;;10.00;99.90;;;;;;4444024;32;20085;-68
2021/11/02 00:47:38;;;;;;;0.40;0.40;;;10.00;99.90;;;;;;4444255;32;20065;-68
2021/11/02 00:50:10;;;;;;;3.70;0.80;;;9.90;99.90;;;;;;4443859;32;20069;-68
2021/11/02 00:52:37;;;;;;;0.68;0.68;;;9.90;99.90;;;;;;4438403;32;20127;-68
2021/11/02 00:55:05;;;;;;;0.50;0.50;;;10.00;99.90;;;;;;4443806;32;20061;-68
2021/11/02 00:57:31;;;;;;;0.30;0.30;;;10.00;99.90;;;;;;4443882;32;20136;-68
2021/11/02 00:59:56;;;;;;;0.50;0.50;;;10.00;99.90;;;;;;4443487;32;20521;-68
2021/11/02 01:02:22;;;;;;;0.35;0.35;;;10.00;99.90;;;;;;4442538;32;20057;-68
2021/11/02 01:04:47;;;;;;;0.50;0.50;;;10.00;99.90;;;;;;4443851;32;20506;-68
2021/11/02 01:07:14;;;;;;;0.40;0.40;;;10.00;99.90;;;;;;4443987;32;20194;-68
2021/11/02 01:09:40;;;;;;;0.35;0.35;;;10.00;99.90;;;;;;4443683;32;20628;-68
2021/11/02 01:12:05;;;;;;;0.30;0.30;;;10.00;99.90;;;;;;4445210;32;20077;-68
2021/11/02 01:14:31;;;;;;;2.08;0.60;;;10.00;99.90;;;;;;4444320;32;20073;-66
2021/11/02 01:16:57;;;;;;;0.55;0.55;;;10.10;99.90;;;;;;4444101;32;20064;-66
2021/11/02 01:19:22;;;;;;;0.40;0.40;;;10.10;99.90;;;;;;4443176;32;20080;-66
2021/11/02 01:21:48;;;;;;;0.50;0.50;;;10.10;99.90;;;;;;4443154;32;20060;-66
2021/11/02 01:24:14;;;;;;;0.50;0.50;;;10.10;99.90;;;;;;4443382;32;20070;-66
2021/11/02 01:26:39;;;;;;;0.40;0.40;;;10.10;99.90;;;;;;4444427;32;20065;-66
2021/11/02 01:29:05;;;;;;;1.10;1.05;;;10.10;99.90;;;;;;4444741;32;20122;-66
2021/11/02 01:31:30;;;;;;;0.75;0.70;;;10.00;99.90;;;;;;4444229;32;20123;-66
2021/11/02 01:33:56;;;;;;;0.88;0.85;;;10.00;99.90;;;;;;4443275;32;20082;-66
2021/11/02 01:36:21;;;;;;;0.40;0.40;;;10.00;99.90;;;;;;4443310;32;20112;-66
2021/11/02 01:38:47;;;;;;;0.40;0.40;;;10.00;99.90;;;;;;4443777;32;20089;-66
2021/11/02 01:41:18;;;;;;;2.92;0.60;;;10.00;99.90;;;;;;4444704;32;20380;-66
2021/11/02 01:43:43;;;;;;;0.50;0.50;;;10.00;99.90;;;;;;4444708;32;20085;-66
2021/11/02 01:46:28;;;;;;;0.40;0.40;;;10.00;99.90;;;;;;4444411;32;20068;-67
2021/11/02 01:48:55;;;;;;;0.65;0.65;;;10.00;99.90;;;;;;4443077;32;20515;-66
2021/11/02 01:51:22;;;;;;;0.20;0.20;;;10.10;99.90;;;;;;4443190;32;20513;-66
2021/11/02 01:53:48;;;;;;;0.28;0.28;;;10.00;99.90;;;;;;4428278;32;20068;-66
2021/11/02 01:56:14;;;;;;;0.40;0.40;;;10.00;99.90;;;;;;4438750;32;20168;-66
2021/11/02 01:58:43;;;;;;;0.80;0.80;;;10.00;99.90;;;;;;4442896;32;20532;-66
2021/11/02 02:01:13;;;;;;;0.40;0.40;;;10.00;99.90;;;;;;4443346;32;20474;-67
2021/11/02 02:03:59;;;;;;;0.40;0.40;;;9.90;99.90;;;;;;4444409;32;20432;-68
2021/11/02 02:06:52;;;;;;;0.40;0.40;;;10.00;99.90;;;;;;4443265;32;20076;-66
2021/11/02 02:09:28;;;;;;;0.40;0.40;;;10.00;99.90;;;;;;4429957;32;20126;-67
2021/11/02 02:12:02;;;;;;;0.98;0.37;;;10.00;99.90;;;;;;4443503;32;20111;-67
2021/11/02 02:14:39;;;;;;;0.32;0.32;;;10.00;99.90;;;;;;4446358;32;20077;-67
2021/11/02 02:17:14;;;;;;;0.40;0.40;;;10.00;99.90;;;;;;4447244;32;20431;-67
2021/11/02 02:20:07;;;;;;;0.40;0.40;;;10.00;99.90;;;;;;4446354;32;20064;-67
2021/11/02 02:22:55;;;;;;;3.20;0.70;;;10.00;99.90;;;;;;4435373;32;20526;-67
2021/11/02 02:25:34;;;;;;;0.40;0.40;;;10.00;99.90;;;;;;4434142;32;20124;-67
2021/11/02 02:28:07;;;;;;;0.30;0.30;;;9.90;99.90;;;;;;4446241;32;20416;-67
2021/11/02 02:30:38;;;;;;;1.55;0.90;;;9.90;99.90;;;;;;4445309;32;20080;-68
2021/11/02 02:33:05;;;;;;;0.90;0.75;;;10.00;99.90;;;;;;4446506;32;20074;-67
2021/11/02 02:35:31;;;;;;;0.60;0.60;;;10.00;99.90;;;;;;4445364;32;20089;-66
2021/11/02 02:37:57;;;;;;;4.18;0.82;;;9.90;99.90;;;;;;4444751;32;20056;-67
2021/11/02 02:40:23;;;;;;;0.47;0.47;;;10.00;99.90;;;;;;4445466;32;20073;-67
2021/11/02 02:42:50;;;;;;;0.90;0.85;;;9.90;99.90;;;;;;4445287;32;20061;-67
2021/11/02 02:45:18;;;;;;;0.30;0.30;;;10.00;99.90;;;;;;4446038;32;20490;-67
2021/11/02 02:47:46;;;;;;;7.87;0.82;;;10.00;99.90;;;;;;4445855;32;20447;-67
2021/11/02 02:50:12;;;;;;;1.65;0.98;;;10.00;99.90;;;;;;4445601;32;20084;-67
2021/11/02 02:52:40;;;;;;;0.68;0.68;;;9.90;99.90;;;;;;4445086;32;20076;-67
2021/11/02 02:55:07;;;;;;;3.08;1.05;;;9.90;99.90;;;;;;4445308;32;20066;-67
2021/11/02 02:57:34;;;;;;;4.72;1.33;;;9.90;99.90;;;;;;4444655;32;20057;-67
2021/11/02 03:00:02;;;;;;;0.40;0.40;;;9.90;99.90;;;;;;4445183;32;20089;-67
2021/11/02 03:02:31;;;;;;;0.32;0.32;;;9.90;99.90;;;;;;4445184;32;20061;-67
2021/11/02 03:04:58;;;;;;;0.30;0.30;;;9.90;99.90;;;;;;4445193;32;20061;-67
2021/11/02 03:07:24;;;;;;;0.40;0.40;;;9.80;99.90;;;;;;4444802;32;20072;-66
2021/11/02 03:09:50;;;;;;;1.75;0.77;;;9.80;99.90;;;;;;4446572;32;20498;-68
2021/11/02 03:12:29;;;;;;;8.38;1.08;;;9.90;99.90;;;;;;4445046;32;20057;-67
2021/11/02 03:15:38;;;;;;;2.12;1.45;;;9.80;99.90;;;;;;4444969;32;20072;-67
2021/11/02 03:17:56;;;;;;;0.40;0.40;;;9.80;99.90;;;;;;4428694;32;20123;-67
2021/11/02 03:45:17;;;;;;;0.30;0.30;;;9.80;99.90;;;;;;4432506;32;20105;-67
2021/11/02 03:48:52;;;;;;;0.30;0.30;;;9.80;99.90;;;;;;4444638;32;20632;-67
2021/11/02 03:51:47;;;;;;;0.52;0.52;;;9.80;99.90;;;;;;4432463;32;20069;-67
2021/11/02 03:54:52;;;;;;;1.55;0.50;;;9.80;99.90;;;;;;4421622;32;20121;-67
2021/11/02 03:56:33;;;;;;;1.37;0.60;;;9.80;99.90;;;;;;4432967;32;20069;-67
2021/11/02 04:22:30;;;;;;;1.37;1.27;;;9.80;99.90;;;;;;4444012;32;20116;-67
2021/11/02 04:23:24;;;;;;;0.40;0.40;;;9.90;99.90;;;;;;4432804;32;20571;-67
2021/11/02 04:23:38;;;;;;;0.82;0.50;;;9.80;99.90;;;;;;4431456;32;20069;-67
2021/11/02 04:30:20;;;;;;;0.50;0.50;;;9.80;99.90;;;;;;4432412;32;20089;-67
2021/11/02 04:33:13;;;;;;;0.50;0.50;;;9.80;99.90;;;;;;4429619;32;82213;-67
2021/11/02 04:34:53;;;;;;;0.40;0.40;;;9.90;99.90;;;;;;4432341;32;20444;-67
2021/11/02 04:42:19;;;;;;;13.93;0.80;;;9.80;99.90;;;;;;4432206;32;20086;-68
2021/11/02 04:43:47;;;;;;;0.37;0.37;;;9.70;99.90;;;;;;4432452;32;20065;-67
2021/11/02 04:46:51;;;;;;;1.25;0.80;;;9.70;99.90;;;;;;4432713;32;20115;-68
2021/11/02 05:06:47;;;;;;;0.55;0.55;;;9.80;99.90;;;;;;4418272;32;20546;-68
2021/11/02 05:07:06;;;;;;;0.45;0.45;;;9.80;99.90;;;;;;4427897;32;20077;-68
2021/11/02 05:08:12;;;;;;;0.85;0.65;;;9.80;99.90;;;;;;4431964;32;20061;-67
2021/11/02 05:57:26;;;;;;;5.45;1.40;;;9.80;99.90;;;;;;4442185;32;20122;-68
2021/11/02 06:00:27;;;;;;;1.45;0.60;;;9.80;99.90;;;;;;4430469;32;20077;-68
2021/11/02 06:05:23;;;;;;;0.60;0.60;;;9.80;99.90;;;;;;4437732;32;20080;-68
2021/11/02 06:09:33;;;;;;;0.55;0.55;;;9.80;99.90;;;;;;4440724;32;20061;-67
2021/11/02 06:23:24;;;;;;;0.57;0.45;;;9.80;99.90;;;;;;4427350;32;21071;-67
2021/11/02 06:27:53;;;;;;;0.62;0.62;;;9.70;99.90;;;;;;4425753;32;20084;-68
2021/11/02 06:28:33;;;;;;;1.33;0.80;;;9.70;99.90;;;;;;4416126;32;20069;-68
2021/11/02 06:31:07;;;;;;;0.70;0.70;;;9.80;99.90;;;;;;4423692;32;20331;-68
2021/11/02 06:33:44;;;;;;;0.98;0.73;;;9.80;99.90;;;;;;4429458;32;20093;-68
2021/11/02 06:42:03;;;;;;;0.70;0.70;;;9.90;99.90;;;;;;4429395;32;20550;-68
2021/11/02 06:48:37;;;;;;;2.55;1.20;;;9.80;99.90;;;;;;4419012;32;20081;-68
2021/11/02 06:53:01;;;;;;;2.72;0.85;;;9.80;99.90;;;;;;4427092;32;20113;-69
2021/11/02 06:59:02;;;;;;;1.17;0.90;;;9.70;99.90;;;;;;4405816;32;20113;-69
2021/11/02 07:10:57;;;;;;;0.57;0.57;;;9.70;99.90;;;;;;4408103;32;20135;-69
2021/11/02 07:16:33;;;;;;;;;;;9.70;99.90;;;;;;4432736;32;20110;-69
2021/11/02 07:18:15;;;;;;;0.75;0.70;;;9.80;99.90;;;;;;4427138;32;19952;-66
2021/11/02 07:20:47;;;;;;;2.53;0.62;;;9.80;99.90;;;;;;4430025;32;20185;-67
2021/11/02 07:23:26;;;;;;;0.55;0.55;;;9.80;99.90;;;;;;4429368;32;20440;-66
2021/11/02 07:26:00;;;;;;;2.83;0.65;;;9.70;99.90;;;;;;4430003;32;20081;-67
2021/11/02 07:28:52;;;;;;;6.28;0.73;;;9.80;99.90;;;;;;4432902;32;20092;-67
2021/11/02 08:45:20;;;;;;;1.45;0.82;;;10.30;99.90;;;;;;4422573;32;20104;-64
2021/11/02 08:47:47;;;;;;;10.77;1.37;;;10.20;99.90;;;;;;4429060;32;20108;-66
2021/11/02 08:50:18;;;;;;;2.08;1.35;;;10.30;99.90;;;;;;4414104;32;20088;-65
2021/11/02 08:52:50;;;;;;;1.27;0.68;;;10.40;99.90;;;;;;4418506;32;21458;-65
2021/11/02 08:55:16;;;;;;;1.20;0.62;;;10.30;99.90;;;;;;4422492;32;20297;-65
2021/11/02 08:57:45;;;;;;;2.28;0.90;;;10.30;99.90;;;;;;4420402;32;20077;-65
2021/11/02 09:00:11;;;;;;;14.05;1.12;;;10.40;99.90;;;;;;4420080;32;20096;-65
2021/11/02 09:02:41;;;;;;;2.05;0.60;;;10.40;99.90;;;;;;4417054;32;20475;-65
2021/11/02 09:05:10;;;;;;;0.88;0.88;;;10.30;99.90;;;;;;4426038;32;20109;-66
2021/11/02 09:07:38;;;;;;;0.43;0.43;;;10.30;99.90;;;;;;4425950;32;20080;-66
2021/11/02 09:10:15;;;;;;;0.70;0.70;;;10.40;99.90;;;;;;4423905;32;20541;-66
2021/11/02 09:12:44;;;;;;;0.62;0.62;;;10.40;99.90;;;;;;4430106;32;20081;-66
2021/11/02 09:15:13;;;;;;;0.37;0.37;;;10.40;99.90;;;;;;4431766;32;20108;-66
2021/11/02 09:17:44;;;;;;;3.85;0.85;;;10.40;99.90;;;;;;4425216;32;20510;-66
2021/11/02 09:20:11;;;;;;;2.20;0.62;;;10.50;99.90;;;;;;4425775;32;20217;-66
2021/11/02 09:22:36;;;;;;;0.62;0.62;;;10.50;99.90;;;;;;4425752;32;20081;-66
2021/11/02 09:25:02;;;;;;;0.55;0.55;;;10.50;99.90;;;;;;4431660;32;20113;-66
2021/11/02 09:27:30;;;;;;;0.70;0.70;;;10.50;99.90;;;;;;4432151;32;20788;-66
2021/11/02 09:29:56;;;;;;;0.50;0.50;;;10.50;99.90;;;;;;4429647;32;20495;-66
2021/11/02 09:32:23;;;;;;;0.57;0.57;;;10.40;99.90;;;;;;4424804;32;20105;-67
2021/11/02 09:34:49;;;;;;;0.70;0.70;;;10.40;99.90;;;;;;4424405;32;20504;-66
2021/11/02 09:37:19;;;;;;;0.47;0.47;;;10.50;99.90;;;;;;4418858;32;20094;-66
2021/11/02 09:39:49;;;;;;;0.55;0.55;;;10.50;99.90;;;;;;4410722;32;20817;-66
2021/11/02 09:42:39;;;;;;;0.85;0.85;;;10.50;99.90;;;;;;4407299;32;20877;-66
2021/11/02 09:45:14;;;;;;;0.70;0.70;;;10.60;99.90;;;;;;4412844;32;20076;-66
2021/11/02 09:48:16;;;;;;;0.52;0.50;;;10.70;99.90;;;;;;4417676;32;20678;-65
2021/11/02 09:51:12;;;;;;;0.60;0.60;;;10.80;99.90;;;;;;4403120;32;20100;-66
2021/11/02 09:54:08;;;;;;;2.35;0.70;;;10.80;99.90;;;;;;4412262;32;20088;-65
2021/11/02 09:56:42;;;;;;;2.28;1.17;;;10.70;99.90;;;;;;4407863;32;20201;-65
2021/11/02 09:59:41;;;;;;;0.30;0.30;;;10.70;99.90;;;;;;4418871;32;20467;-66
2021/11/02 10:02:45;;;;;;;1.10;0.82;;;10.70;99.90;;;;;;4409543;32;20183;-66
2021/11/02 10:05:30;;;;;;;0.57;0.57;;;10.70;99.90;;;;;;4402496;32;20104;-65
2021/11/02 10:08:10;;;;;;;5.87;0.73;;;10.80;99.90;;;;;;4418746;32;20208;-66
2021/11/02 10:11:13;;;;;;;0.57;0.57;;;10.90;99.90;;;;;;4423792;32;20777;-65
2021/11/02 10:14:02;;;;;;;6.55;0.80;;;10.90;99.90;;;;;;4409523;32;20092;-65
2021/11/02 10:16:58;;;;;;;0.40;0.40;;;11.00;99.90;;;;;;4412545;32;20097;-66
2021/11/02 10:20:04;;;;;;;0.60;0.60;;;11.10;99.90;;;;;;4406818;32;20081;-65
2021/11/02 10:22:56;;;;;;;6.93;1.23;;;10.90;99.90;;;;;;4402459;32;20132;-65
2021/11/02 10:26:01;;;;;;;1.35;1.23;;;10.90;99.90;;;;;;4407500;32;20092;-65
2021/11/02 10:29:07;;;;;;;0.43;0.43;;;10.90;99.90;;;;;;4411718;32;20167;-68
2021/11/02 10:31:36;;;;;;;0.55;0.55;;;11.10;99.90;;;;;;4406748;32;20139;-68
2021/11/02 10:34:10;;;;;;;1.55;1.27;;;11.10;99.90;;;;;;4420842;32;20114;-68
2021/11/02 10:37:03;;;;;;;3.83;2.08;;;11.10;99.90;;;;;;4421845;32;20136;-67
2021/11/02 10:39:40;;;;;;;0.60;0.60;;;11.00;99.90;;;;;;4428446;32;20088;-68
2021/11/02 10:42:28;;;;;;;0.60;0.60;;;11.10;99.90;;;;;;4427788;32;20923;-68
2021/11/02 10:45:00;;;;;;;0.50;0.50;;;11.10;99.90;;;;;;4422606;32;20104;-68
2021/11/02 10:47:39;;;;;;;0.60;0.60;;;11.30;99.90;;;;;;4427690;32;20089;-68
2021/11/02 10:50:09;;;;;;;1.55;1.08;;;11.40;99.90;;;;;;4428310;32;20085;-68
2021/11/02 10:52:37;;;;;;;0.43;0.43;;;11.40;99.90;;;;;;4432631;32;20072;-68
2021/11/02 10:55:24;;;;;;;0.85;0.85;;;11.30;99.90;;;;;;4428276;32;20100;-68
2021/11/02 10:58:31;;;;;;;0.60;0.60;;;11.50;99.90;;;;;;4426280;32;20118;-68
2021/11/02 11:00:57;;;;;;;0.50;0.50;;;11.50;99.90;;;;;;4417612;32;20097;-68
2021/11/02 11:03:31;;;;;;;0.43;0.43;;;11.60;99.90;;;;;;4429319;32;20069;-68
2021/11/02 11:05:59;;;;;;;2.95;1.27;;;11.70;99.90;;;;;;4425467;32;20154;-67
2021/11/02 11:08:28;;;;;;;3.00;1.15;;;11.70;99.90;;;;;;4429256;32;20169;-68
2021/11/02 11:10:57;;;;;;;11.60;0.70;;;11.90;99.90;;;;;;4430375;32;20089;-68
2021/11/02 11:13:26;;;;;;;0.57;0.57;;;11.90;99.90;;;;;;4429730;32;20407;-67
2021/11/02 11:15:57;;;;;;;0.70;0.70;;;12.00;99.90;;;;;;4422295;32;20509;-67
2021/11/02 11:18:33;;;;;;;1.00;0.77;;;12.10;99.90;;;;;;4421770;32;20177;-67
2021/11/02 11:21:00;;;;;;;0.50;0.50;;;12.20;99.90;;;;;;4418429;32;20093;-67
2021/11/02 11:23:26;;;;;;;3.10;0.52;;;12.00;99.90;;;;;;4427018;32;20060;-67
2021/11/02 11:26:00;;;;;;;0.75;0.75;;;12.00;99.90;;;;;;4429920;32;20117;-67
2021/11/02 11:28:25;;;;;;;0.55;0.55;;;12.00;99.90;;;;;;4427514;32;20092;-67
2021/11/02 11:30:56;;;;;;;2.25;1.27;;;11.90;99.90;;;;;;4427707;32;20101;-67
2021/11/02 11:33:25;;;;;;;;;;;11.90;99.90;;;;;;4435767;32;20060;-67
2021/11/02 11:35:57;;;;;;;4.85;1.83;;;11.90;99.90;;;;;;4430322;32;20028;-68
2021/11/02 11:38:26;;;;;;;0.60;0.60;;;12.00;99.90;;;;;;4430975;32;20092;-67
2021/11/02 11:40:54;;;;;;;0.60;0.60;;;12.00;99.90;;;;;;4428630;32;20431;-66
2021/11/02 11:43:27;;;;;;;0.50;0.50;;;12.00;99.90;;;;;;4433745;32;20482;-67
2021/11/02 11:45:54;;;;;;;1.00;0.70;;;11.90;99.90;;;;;;4433147;32;20080;-67
2021/11/02 11:48:23;;;;;;;0.60;0.60;;;12.00;99.90;;;;;;4427503;32;20096;-69
2021/11/02 11:50:49;;;;;;;4.18;0.62;;;12.00;99.90;;;;;;4427543;32;20089;-68
2021/11/02 11:53:16;;;;;;;0.50;0.50;;;12.00;99.90;;;;;;4426886;32;20139;-69
2021/11/02 11:55:44;;;;;;;0.50;0.50;;;12.10;99.90;;;;;;4423572;32;20146;-67
2021/11/02 11:58:15;;;;;;;0.85;0.85;;;12.20;99.90;;;;;;4422280;32;20181;-67
2021/11/02 12:00:45;;;;;;;1.17;1.08;;;12.30;99.90;;;;;;4427470;32;20104;-67
2021/11/02 12:03:36;;;;;;;0.77;0.77;;;12.30;99.90;;;;;;4428643;32;20132;-67
2021/11/02 12:06:09;;;;;;;1.90;0.95;;;12.40;99.90;;;;;;4421715;32;20092;-67
2021/11/02 12:08:53;;;;;;;0.40;0.40;;;12.50;99.90;;;;;;4427067;32;20093;-68
2021/11/02 12:11:21;;;;;;;0.60;0.60;;;12.60;99.90;;;;;;4430392;32;20100;-67
2021/11/02 12:13:53;;;;;;;0.50;0.50;;;12.80;99.90;;;;;;4427073;32;20120;-67
2021/11/02 12:16:27;;;;;;;0.80;0.75;;;13.20;99.90;;;;;;4429808;32;20082;-67
2021/11/02 12:18:58;;;;;;;0.43;0.43;;;13.60;99.90;;;;;;4432876;32;20428;-67
2021/11/02 12:21:25;;;;;;;3.03;1.40;;;13.50;99.90;;;;;;4431710;32;20679;-68
2021/11/02 12:23:51;;;;;;;0.62;0.55;;;13.30;99.90;;;;;;4426484;32;20310;-67
2021/11/02 12:26:17;;;;;;;0.50;0.50;;;13.20;99.90;;;;;;4428647;32;20192;-69
2021/11/02 12:28:47;;;;;;;0.47;0.47;;;13.30;99.90;;;;;;4429148;32;20109;-68
2021/11/02 12:31:16;;;;;;;2.83;0.98;;;13.70;99.90;;;;;;4429780;32;20128;-68
2021/11/02 12:33:45;;;;;;;0.80;0.80;;;13.80;99.90;;;;;;4429219;32;20048;-68
2021/11/02 12:36:18;;;;;;;0.40;0.40;;;13.80;99.90;;;;;;4430020;32;20250;-68
2021/11/02 12:38:45;;;;;;;0.45;0.45;;;14.10;99.90;;;;;;4429729;32;20400;-68
2021/11/02 12:41:18;;;;;;;0.47;0.47;;;14.30;99.90;;;;;;4425815;32;20166;-68
2021/11/02 12:43:44;;;;;;;0.55;0.37;;;14.50;99.90;;;;;;4425163;32;20081;-68
2021/11/02 12:46:10;;;;;;;0.73;0.60;;;14.60;99.90;;;;;;4425167;32;20088;-68
2021/11/02 12:48:37;;;;;;;0.70;0.70;;;14.70;99.90;;;;;;4430604;32;20154;-68
2021/11/02 12:51:13;;;;;;;0.85;0.85;;;14.80;99.90;;;;;;4429437;32;20089;-68
2021/11/02 12:53:42;;;;;;;0.45;0.45;;;14.60;99.90;;;;;;4431633;32;20142;-68
2021/11/02 12:56:15;;;;;;;0.62;0.62;;;14.40;99.90;;;;;;4429302;32;20088;-68
2021/11/02 12:58:42;;;;;;;1.27;1.17;;;14.40;99.90;;;;;;4430728;32;20058;-68
2021/11/02 13:01:09;;;;;;;0.50;0.50;;;14.20;99.90;;;;;;4431254;32;20202;-67
2021/11/02 13:03:37;;;;;;;0.60;0.60;;;13.90;99.90;;;;;;4429836;32;20595;-68
2021/11/02 13:06:07;;;;;;;3.30;0.80;;;13.80;99.90;;;;;;4433145;32;20112;-68
2021/11/02 13:08:36;;;;;;;0.80;0.62;;;13.80;99.90;;;;;;4428758;32;20533;-71
2021/11/02 13:11:06;;;;;;;0.60;0.60;;;13.90;99.90;;;;;;4428304;32;20131;-68
2021/11/02 13:13:40;;;;;;;0.50;0.50;;;14.00;99.90;;;;;;4424106;32;20065;-67
2021/11/02 13:16:06;;;;;;;0.50;0.50;;;13.90;99.90;;;;;;4424465;32;20608;-68
2021/11/02 13:18:39;;;;;;;1.48;0.98;;;13.70;99.90;;;;;;4424182;32;20057;-68
2021/11/02 13:21:18;;;;;;;0.50;0.50;;;13.70;99.90;;;;;;4422971;32;20152;-68
2021/11/02 13:23:52;;;;;;;0.75;0.70;;;13.70;99.90;;;;;;4427775;32;20101;-68
2021/11/02 13:26:20;;;;;;;0.77;0.77;;;13.70;99.90;;;;;;4429885;32;20084;-68
2021/11/02 13:28:46;;;;;;;0.47;0.47;;;13.70;99.90;;;;;;4426825;32;20125;-69
2021/11/02 13:31:26;;;;;;;1.02;0.85;;;13.50;99.90;;;;;;4421480;32;20180;-68
2021/11/02 13:33:56;;;;;;;0.50;0.50;;;13.40;99.90;;;;;;4427900;32;20101;-68
2021/11/02 13:36:22;;;;;;;0.50;0.50;;;13.30;99.90;;;;;;4428770;32;20053;-68
2021/11/02 13:38:47;;;;;;;0.47;0.47;;;13.30;99.90;;;;;;4430192;32;20194;-68
2021/11/02 13:41:31;;;;;;;0.43;0.43;;;13.40;99.90;;;;;;4431761;32;20708;-69
2021/11/02 13:44:00;;;;;;;0.50;0.50;;;13.40;99.90;;;;;;4431445;32;20068;-68
2021/11/02 13:46:28;;;;;;;0.40;0.40;;;13.50;99.90;;;;;;4434541;32;20224;-68
2021/11/02 13:48:55;;;;;;;0.40;0.40;;;13.40;99.90;;;;;;4431271;32;20678;-68
2021/11/02 13:51:22;;;;;;;0.50;0.50;;;13.30;99.90;;;;;;4431271;32;20668;-68
2021/11/02 13:53:49;;;;;;;0.50;0.50;;;13.30;99.90;;;;;;4434499;32;20089;-68
2021/11/02 13:56:17;;;;;;;4.03;1.25;;;13.30;99.90;;;;;;4429457;32;20151;-68
2021/11/02 13:58:43;;;;;;;1.62;1.33;;;13.10;99.90;;;;;;4437529;32;20070;-68
2021/11/02 14:01:16;;;;;;;0.60;0.60;;;13.20;99.90;;;;;;4435323;32;20123;-68
2021/11/02 14:03:47;;;;;;;0.45;0.45;;;13.00;99.90;;;;;;4439035;32;20089;-67
2021/11/02 14:06:17;;;;;;;;;;;13.00;99.90;;;;;;4435120;32;20412;-68
2021/11/02 14:08:45;;;;;;;0.70;0.70;;;12.90;99.90;;;;;;4438074;32;20260;-68
2021/11/02 14:11:20;;;;;;;0.50;0.50;;;12.90;99.90;;;;;;4439925;32;20089;-68
2021/11/02 14:13:48;;;;;;;0.45;0.45;;;12.90;99.90;;;;;;4438213;32;20097;-68
2021/11/02 14:16:15;;;;;;;0.40;0.40;;;12.90;99.90;;;;;;4443450;32;20081;-68
2021/11/02 14:18:42;;;;;;;1.65;0.60;;;13.00;99.90;;;;;;4442211;32;20073;-68
2021/11/02 14:21:09;;;;;;;0.47;0.47;;;13.10;99.90;;;;;;4440872;32;20149;-68
2021/11/02 14:23:41;;;;;;;0.95;0.82;;;13.20;99.90;;;;;;4440298;32;20056;-68
2021/11/02 14:26:26;;;;;;;0.60;0.60;;;13.30;99.90;;;;;;4438278;32;20533;-68
2021/11/02 14:28:55;;;;;;;0.55;0.55;;;13.30;99.90;;;;;;4439660;32;20164;-68
2021/11/02 14:31:40;;;;;;;0.70;0.70;;;13.20;99.90;;;;;;4439451;32;20081;-68
2021/11/02 14:34:29;;;;;;;0.50;0.50;;;13.20;99.90;;;;;;4437557;32;21451;-68
2021/11/02 14:37:13;;;;;;;1.60;1.35;;;13.30;99.90;;;;;;4429712;32;20113;-68
2021/11/02 14:40:01;;;;;;;2.37;1.48;;;13.40;99.90;;;;;;4439491;32;20109;-68
2021/11/02 14:42:44;;;;;;;0.50;0.50;;;13.40;99.90;;;;;;4429167;32;20858;-68
2021/11/02 14:45:13;;;;;;;1.33;0.90;;;13.30;99.90;;;;;;4441936;32;20179;-67
2021/11/02 14:47:39;;;;;;;0.52;0.52;;;13.20;99.90;;;;;;4440558;32;20537;-68
2021/11/02 14:50:33;;;;;;;2.12;0.82;;;13.20;99.90;;;;;;4432595;32;20463;-68
2021/11/02 14:53:27;;;;;;;0.52;0.52;;;13.10;99.90;;;;;;4429851;32;20062;-68
2021/11/02 14:56:03;;;;;;;0.95;0.82;;;13.20;99.90;;;;;;4410040;32;20069;-68
2021/11/02 14:58:48;;;;;;;0.50;0.50;;;13.20;99.90;;;;;;4435105;32;20146;-68
2021/11/02 15:01:20;;;;;;;0.73;0.73;;;13.20;99.90;;;;;;4419780;32;20097;-68
2021/11/02 15:04:06;;;;;;;0.60;0.60;;;13.20;99.90;;;;;;4437030;32;20127;-68
2021/11/02 15:06:37;;;;;;;0.95;0.80;;;13.10;99.90;;;;;;4426898;32;20092;-68
2021/11/02 15:09:06;;;;;;;15.13;0.95;;;13.00;99.90;;;;;;4440715;32;20120;-68
2021/11/02 15:11:33;;;;;;;0.40;0.40;;;12.90;99.90;;;;;;4437477;32;20573;-68
2021/11/02 15:14:02;;;;;;;0.50;0.50;;;12.90;99.90;;;;;;4437280;32;20096;-68
2021/11/02 15:16:28;;;;;;;0.47;0.47;;;12.80;99.90;;;;;;4442456;32;20403;-68
2021/11/02 15:19:03;;;;;;;2.08;1.15;;;12.80;99.90;;;;;;4442159;32;20089;-68
2021/11/02 15:21:32;;;;;;;0.60;0.60;;;12.70;99.90;;;;;;4419721;32;20073;-68
2021/11/02 15:24:05;;;;;;;1.05;0.95;;;12.50;99.90;;;;;;4434764;32;20175;-68
2021/11/02 15:26:40;;;;;;;0.60;0.60;;;12.40;99.90;;;;;;4438890;32;20068;-68
2021/11/02 15:29:05;;;;;;;0.60;0.60;;;12.30;99.90;;;;;;4434383;32;20077;-68
2021/11/02 15:31:31;;;;;;;0.60;0.55;;;12.20;99.90;;;;;;4432897;32;20101;-68
2021/11/02 15:34:10;;;;;;;5.03;1.10;;;12.20;99.90;;;;;;4416545;32;20105;-68
2021/11/02 15:36:35;;;;;;;4.20;1.42;;;12.20;99.90;;;;;;4418020;32;20072;-68
2021/11/02 15:39:05;;;;;;;9.75;0.85;;;12.10;99.90;;;;;;4437044;32;20109;-68
2021/11/02 15:41:32;;;;;;;3.17;1.25;;;12.20;99.90;;;;;;4444819;32;20076;-68
2021/11/02 15:44:03;;;;;;;2.72;1.87;;;12.10;99.90;;;;;;4446020;32;20498;-68
2021/11/02 15:46:31;;;;;;;1.25;1.15;;;12.10;99.90;;;;;;4438634;32;20517;-68
2021/11/02 15:48:58;;;;;;;0.82;0.82;;;12.10;99.90;;;;;;4439548;32;20077;-68
2021/11/02 15:51:26;;;;;;;0.43;0.43;;;12.10;99.90;;;;;;4439358;32;20206;-68
2021/11/02 15:53:52;;;;;;;0.75;0.75;;;12.10;99.90;;;;;;4438882;32;20089;-68
2021/11/02 15:56:26;;;;;;;0.50;0.50;;;12.00;99.90;;;;;;4436396;32;20164;-68
2021/11/02 15:58:57;;;;;;;0.60;0.60;;;12.00;99.90;;;;;;4422568;32;20080;-68
2021/11/02 16:01:45;;;;;;;0.62;0.62;;;11.90;99.90;;;;;;4438191;32;20065;-68
2021/11/02 16:04:17;;;;;;;0.37;0.37;;;11.90;99.90;;;;;;4428503;32;20080;-68
2021/11/02 16:07:08;;;;;;;0.57;0.57;;;11.80;99.90;;;;;;4438728;32;20148;-68
2021/11/02 16:09:53;;;;;;;0.70;0.70;;;11.80;99.90;;;;;;4435561;32;20399;-68
2021/11/02 16:12:31;;;;;;;4.72;1.40;;;11.80;99.90;;;;;;4434471;32;20172;-68
2021/11/02 16:15:02;;;;;;;0.95;0.95;;;11.80;99.90;;;;;;4437536;32;20069;-68
2021/11/02 16:17:28;;;;;;;0.90;0.90;;;11.80;99.90;;;;;;4424213;32;20140;-68
2021/11/02 16:19:56;;;;;;;0.65;0.65;;;11.70;99.90;;;;;;4441944;32;20065;-68
2021/11/02 16:22:23;;;;;;;0.50;0.50;;;11.60;99.90;;;;;;4437453;32;20061;-68
2021/11/02 16:25:08;;;;;;;0.50;0.50;;;11.40;99.90;;;;;;4439547;32;20089;-68
2021/11/02 16:27:34;;;;;;;0.70;0.70;;;11.40;99.90;;;;;;4440119;32;20065;-68
2021/11/02 16:30:13;;;;;;;0.88;0.85;;;11.40;99.90;;;;;;4441800;32;20057;-68
2021/11/02 16:32:41;;;;;;;0.98;0.90;;;11.40;99.90;;;;;;4437468;32;20076;-68
2021/11/02 16:35:07;;;;;;;0.85;0.85;;;11.40;99.90;;;;;;4438724;32;20072;-68
2021/11/02 16:37:36;;;;;;;0.40;0.40;;;11.50;99.90;;;;;;4438576;32;20060;-68
2021/11/02 16:40:24;;;;;;;3.50;1.23;;;11.50;99.90;;;;;;4435756;32;20164;-68
2021/11/02 16:43:05;;;;;;;1.65;0.95;;;11.50;99.90;;;;;;4425906;32;20573;-68
2021/11/02 16:45:34;;;;;;;2.17;1.50;;;11.60;99.90;;;;;;4440431;32;20104;-68
2021/11/02 16:48:02;;;;;;;1.20;1.10;;;11.50;99.90;;;;;;4439147;32;20093;-68
2021/11/02 16:50:35;;;;;;;1.12;1.05;;;11.50;99.90;;;;;;4440333;32;20428;-68
2021/11/02 16:53:10;;;;;;;0.80;0.80;;;11.40;99.90;;;;;;4438386;32;20521;-68
2021/11/02 16:55:39;;;;;;;1.17;0.95;;;11.40;99.90;;;;;;4440578;32;20137;-68
2021/11/02 16:58:24;;;;;;;2.95;0.90;;;11.40;99.90;;;;;;4438066;32;20093;-68
2021/11/02 17:00:50;;;;;;;0.70;0.70;;;11.40;99.90;;;;;;4437041;32;20065;-67
2021/11/02 17:03:24;;;;;;;0.93;0.85;;;11.40;99.90;;;;;;4438192;32;20314;-67
2021/11/02 17:05:49;;;;;;;1.17;0.70;;;11.40;99.90;;;;;;4437165;32;20138;-67